createdAt,value
2023-01-22T00:00:06.799Z,100692.06
2023-01-22T00:02:36.483Z,100696.47
2023-01-22T00:05:04.613Z,100691.78
2023-01-22T00:07:31.453Z,100692.34
2023-01-22T00:09:59.945Z,100690.16
2023-01-22T00:12:27.498Z,100697.03
2023-01-22T00:14:54.233Z,100694.28
2023-01-22T00:17:21.116Z,100691.53
2023-01-22T00:19:48.067Z,100692.06
2023-01-22T00:22:15.018Z,100698.91
2023-01-22T00:24:42.266Z,100697.81
2023-01-22T00:27:09.368Z,100698.38
2023-01-22T00:29:36.626Z,100694.53
2023-01-22T00:32:03.634Z,100697.56
2023-01-22T00:34:30.985Z,100685.50
2023-01-22T00:36:58.033Z,100689.88
2023-01-22T00:39:25.038Z,100695.91
2023-01-22T00:41:53.225Z,100694.84
2023-01-22T00:44:19.791Z,100695.91
2023-01-22T00:46:46.599Z,100700.31
2023-01-22T00:49:13.207Z,100704.16
2023-01-22T00:51:39.867Z,100710.44
2023-01-22T00:54:06.973Z,100704.69
2023-01-22T00:56:33.688Z,100712.94
2023-01-22T00:59:00.318Z,100726.06
2023-01-22T01:01:27.007Z,100721.91
2023-01-22T01:03:53.934Z,100720.84
2023-01-22T01:06:22.012Z,100720.84
2023-01-22T01:08:49.910Z,100716.44
2023-01-22T01:11:26.284Z,100723.31
2023-01-22T01:13:53.783Z,100720.00
2023-01-22T01:16:30.012Z,100726.53
2023-01-22T01:19:01.714Z,100725.69
2023-01-22T01:21:28.919Z,100722.75
2023-01-22T01:23:56.349Z,100723.03
2023-01-22T01:26:23.355Z,100723.56
2023-01-22T01:28:52.498Z,100720.84
2023-01-22T01:31:20.452Z,100726.06
2023-01-22T01:33:47.249Z,100726.63
2023-01-22T01:36:30.733Z,100721.41
2023-01-22T01:39:06.064Z,100719.47
2023-01-22T01:41:32.609Z,100714.56
2023-01-22T01:44:13.395Z,100708.81
2023-01-22T01:46:43.546Z,100715.94
2023-01-22T01:49:20.068Z,100702.22
2023-01-22T01:51:47.079Z,100707.13
2023-01-22T01:54:13.686Z,100707.16
2023-01-22T01:56:44.850Z,100716.47
2023-01-22T01:59:14.970Z,100712.91
2023-01-22T02:01:42.109Z,100712.63
2023-01-22T02:04:08.931Z,100721.41
2023-01-22T02:06:35.479Z,100717.03
2023-01-22T02:09:02.790Z,100726.06
2023-01-22T02:11:30.668Z,100724.16
2023-01-22T02:14:04.900Z,100720.03
2023-01-22T02:16:32.032Z,100730.19
2023-01-22T02:18:58.995Z,100737.59
2023-01-22T02:21:38.147Z,100738.97
2023-01-22T02:24:13.809Z,100736.25
2023-01-22T02:26:41.786Z,100739.78
2023-01-22T02:29:11.841Z,100741.16
2023-01-22T02:31:40.584Z,100745.28
2023-01-22T02:34:09.673Z,100750.78
2023-01-22T02:36:38.380Z,100744.19
2023-01-22T02:39:06.614Z,100748.56
2023-01-22T02:41:33.473Z,100745.84
2023-01-22T02:44:00.627Z,100746.38
2023-01-22T02:46:27.454Z,100749.69
2023-01-22T02:48:54.043Z,100747.16
2023-01-22T02:51:20.718Z,100751.31
2023-01-22T02:53:47.465Z,100745.56
2023-01-22T02:56:14.112Z,100741.16
2023-01-22T02:58:40.877Z,100742.25
2023-01-22T03:01:19.043Z,100742.81
2023-01-22T03:03:54.635Z,100748.81
2023-01-22T03:06:22.837Z,100747.75
2023-01-22T03:08:58.231Z,100752.41
2023-01-22T03:11:26.732Z,100751.31
2023-01-22T03:14:13.729Z,100749.41
2023-01-22T03:16:59.548Z,100748.31
2023-01-22T03:19:45.343Z,100746.94
2023-01-22T03:22:12.380Z,100753.25
2023-01-22T03:24:39.349Z,100759.81
2023-01-22T03:27:06.230Z,100756.25
2023-01-22T03:29:33.019Z,100763.63
2023-01-22T03:31:59.767Z,100760.63
2023-01-22T03:34:26.654Z,100769.66
2023-01-22T03:36:53.475Z,100771.03
2023-01-22T03:39:20.261Z,100769.66
2023-01-22T03:41:46.829Z,100773.78
2023-01-22T03:44:14.271Z,100777.38
2023-01-22T03:46:41.149Z,100769.66
2023-01-22T03:49:08.313Z,100777.84
2023-01-22T03:51:35.547Z,100777.03
2023-01-22T03:54:02.381Z,100780.09
2023-01-22T03:56:29.109Z,100780.63
2023-01-22T03:58:56.395Z,100777.34
2023-01-22T04:01:27.923Z,100781.22
2023-01-22T04:03:55.061Z,100779.28
2023-01-22T04:06:23.213Z,100788.03
2023-01-22T04:08:51.491Z,100790.53
2023-01-22T04:11:18.689Z,100791.38
2023-01-22T04:13:45.997Z,100789.47
2023-01-22T04:16:13.848Z,100792.47
2023-01-22T04:18:41.679Z,100794.13
2023-01-22T04:21:08.601Z,100801.22
2023-01-22T04:23:35.436Z,100796.88
2023-01-22T04:26:02.011Z,100799.56
2023-01-22T04:28:28.995Z,100800.94
2023-01-22T04:30:56.135Z,100798.50
2023-01-22T04:33:22.755Z,100808.63
2023-01-22T04:35:54.420Z,100804.25
2023-01-22T04:38:21.061Z,100799.59
2023-01-22T04:40:47.623Z,100802.06
2023-01-22T04:43:14.158Z,100800.44
2023-01-22T04:45:40.648Z,100798.78
2023-01-22T04:48:08.591Z,100797.69
2023-01-22T04:50:35.251Z,100802.66
2023-01-22T04:53:02.109Z,100802.38
2023-01-22T04:55:29.290Z,100806.75
2023-01-22T04:57:57.067Z,100804.81
2023-01-22T05:00:24.402Z,100810.56
2023-01-22T05:02:51.169Z,100811.09
2023-01-22T05:05:17.732Z,100812.47
2023-01-22T05:07:44.295Z,100817.41
2023-01-22T05:10:10.955Z,100815.25
2023-01-22T05:12:37.533Z,100826.78
2023-01-22T05:15:14.989Z,100819.09
2023-01-22T05:17:45.227Z,100822.09
2023-01-22T05:20:12.052Z,100822.91
2023-01-22T05:22:38.723Z,100825.69
2023-01-22T05:25:05.595Z,100825.13
2023-01-22T05:27:32.421Z,100823.75
2023-01-22T05:29:59.015Z,100824.06
2023-01-22T05:32:25.521Z,100827.06
2023-01-22T05:34:52.046Z,100828.72
2023-01-22T05:37:18.557Z,100826.78
2023-01-22T05:39:45.050Z,100831.19
2023-01-22T05:42:14.601Z,100833.09
2023-01-22T05:44:41.056Z,100838.88
2023-01-22T05:47:08.309Z,100842.16
2023-01-22T05:49:34.843Z,100838.38
2023-01-22T05:52:01.479Z,100839.47
2023-01-22T05:54:27.953Z,100840.25
2023-01-22T05:56:54.400Z,100846.28
2023-01-22T05:59:20.951Z,100846.28
2023-01-22T06:01:47.634Z,100844.91
2023-01-22T06:04:14.106Z,100842.16
2023-01-22T06:06:40.547Z,100849.91
2023-01-22T06:09:07.019Z,100845.50
2023-01-22T06:11:33.457Z,100844.91
2023-01-22T06:13:59.956Z,100854.78
2023-01-22T06:16:26.444Z,100860.88
2023-01-22T06:18:52.869Z,100855.88
2023-01-22T06:21:19.302Z,100864.13
2023-01-22T06:23:46.108Z,100864.63
2023-01-22T06:26:12.596Z,100864.09
2023-01-22T06:28:39.367Z,100869.84
2023-01-22T06:31:07.617Z,100875.34
2023-01-22T06:33:34.975Z,100876.19
2023-01-22T06:36:02.075Z,100878.63
2023-01-22T06:38:28.681Z,100887.66
2023-01-22T06:40:56.725Z,100894.00
2023-01-22T06:43:24.089Z,100894.81
2023-01-22T06:45:50.639Z,100894.00
2023-01-22T06:48:17.127Z,100898.66
2023-01-22T06:50:43.608Z,100901.09
2023-01-22T06:53:10.425Z,100908.50
2023-01-22T06:55:37.129Z,100903.59
2023-01-22T06:58:03.625Z,100906.91
2023-01-22T07:00:30.159Z,100910.13
2023-01-22T07:02:57.161Z,100910.97
2023-01-22T07:05:23.749Z,100908.25
2023-01-22T07:07:53.950Z,100914.59
2023-01-22T07:10:20.976Z,100920.41
2023-01-22T07:12:48.969Z,100924.47
2023-01-22T07:15:15.486Z,100930.06
2023-01-22T07:17:41.915Z,100929.75
2023-01-22T07:20:09.297Z,100932.22
2023-01-22T07:22:35.794Z,100934.19
2023-01-22T07:25:02.351Z,100931.94
2023-01-22T07:27:30.406Z,100932.78
2023-01-22T07:29:56.871Z,100930.03
2023-01-22T07:32:23.298Z,100934.41
2023-01-22T07:34:49.691Z,100938.19
2023-01-22T07:37:16.064Z,100937.91
2023-01-22T07:39:42.524Z,100938.25
2023-01-22T07:42:08.982Z,100943.78
2023-01-22T07:44:36.993Z,100940.47
2023-01-22T07:47:03.547Z,100948.94
2023-01-22T07:49:29.976Z,100955.53
2023-01-22T07:51:56.433Z,100965.63
2023-01-22T07:54:23.790Z,100967.25
2023-01-22T07:56:50.421Z,100961.22
2023-01-22T07:59:16.879Z,100977.69
2023-01-22T08:01:43.418Z,100965.84
2023-01-22T08:04:09.825Z,100966.13
2023-01-22T08:06:36.278Z,100973.53
2023-01-22T08:09:02.693Z,100973.28
2023-01-22T08:11:29.142Z,100971.66
2023-01-22T08:13:55.648Z,100969.25
2023-01-22T08:16:22.372Z,100976.66
2023-01-22T08:18:49.411Z,100983.53
2023-01-22T08:21:15.834Z,100985.09
2023-01-22T08:23:45.269Z,100989.50
2023-01-22T08:26:13.143Z,100995.25
2023-01-22T08:28:39.626Z,100996.72
2023-01-22T08:31:09.375Z,100997.22
2023-01-22T08:33:38.420Z,100995.75
2023-01-22T08:36:05.991Z,101007.84
2023-01-22T08:38:32.496Z,101005.94
2023-01-22T08:40:59.133Z,101016.63
2023-01-22T08:43:25.618Z,101017.19
2023-01-22T08:45:52.140Z,101028.69
2023-01-22T08:48:18.564Z,101018.19
2023-01-22T08:50:45.443Z,101018.00
2023-01-22T08:53:11.902Z,101023.22
2023-01-22T08:55:38.431Z,101028.97
2023-01-22T08:58:05.232Z,101021.13
2023-01-22T09:00:32.048Z,101018.13
2023-01-22T09:02:59.798Z,101026.84
2023-01-22T09:05:27.283Z,101022.78
2023-01-22T09:07:53.806Z,101025.25
2023-01-22T09:10:21.853Z,101021.75
2023-01-22T09:12:48.646Z,101019.84
2023-01-22T09:15:15.232Z,101027.81
2023-01-22T09:17:42.540Z,101037.66
2023-01-22T09:20:09.674Z,101033.88
2023-01-22T09:22:36.337Z,101040.81
2023-01-22T09:25:02.883Z,101046.03
2023-01-22T09:27:30.009Z,101043.56
2023-01-22T09:29:56.433Z,101037.06
2023-01-22T09:32:22.802Z,101042.56
2023-01-22T09:34:49.243Z,101039.72
2023-01-22T09:37:15.866Z,101041.16
2023-01-22T09:39:42.343Z,101041.72
2023-01-22T09:42:13.638Z,101041.72
2023-01-22T09:44:43.118Z,101046.09
2023-01-22T09:47:15.332Z,101043.94
2023-01-22T09:50:04.277Z,101035.56
2023-01-22T09:52:33.997Z,101037.66
2023-01-22T09:55:00.375Z,101032.97
2023-01-22T09:57:31.696Z,101036.28
2023-01-22T10:00:03.691Z,101040.97
2023-01-22T10:02:35.870Z,101045.94
2023-01-22T10:05:23.590Z,101050.97
2023-01-22T10:08:00.646Z,101047.88
2023-01-22T10:10:28.682Z,101050.28
2023-01-22T10:12:59.378Z,101054.97
2023-01-22T10:15:26.018Z,101056.94
2023-01-22T10:17:54.657Z,101064.22
2023-01-22T10:20:21.562Z,101063.84
2023-01-22T10:22:48.963Z,101066.16
2023-01-22T10:25:16.463Z,101061.47
2023-01-22T10:27:44.612Z,101067.06
2023-01-22T10:30:14.113Z,101068.06
2023-01-22T10:32:40.534Z,101075.88
2023-01-22T10:35:17.365Z,101073.00
2023-01-22T10:37:49.615Z,101075.78
2023-01-22T10:40:33.854Z,101072.75
2023-01-22T10:43:10.749Z,101077.13
2023-01-22T10:45:37.996Z,101075.31
2023-01-22T10:48:06.612Z,101071.44
2023-01-22T10:50:33.113Z,101072.34
2023-01-22T10:53:00.174Z,101076.78
2023-01-22T10:55:30.239Z,101071.03
2023-01-22T10:58:02.742Z,101079.03
2023-01-22T11:00:50.934Z,101078.19
2023-01-22T11:03:23.683Z,101083.00
2023-01-22T11:05:57.958Z,101079.22
2023-01-22T11:08:30.333Z,101081.41
2023-01-22T11:11:02.754Z,101069.84
2023-01-22T11:13:38.934Z,101074.53
2023-01-22T11:16:16.881Z,101071.22
2023-01-22T11:18:48.428Z,101066.63
2023-01-22T11:21:50.428Z,101066.25
2023-01-22T11:24:39.118Z,101068.69
2023-01-22T11:27:15.223Z,101072.31
2023-01-22T11:30:18.097Z,101074.81
2023-01-22T11:33:24.422Z,101077.28
2023-01-22T11:36:17.153Z,101083.34
2023-01-22T11:38:51.515Z,101083.91
2023-01-22T11:41:57.081Z,101086.31
2023-01-22T11:44:41.564Z,101084.16
2023-01-22T11:47:25.486Z,101080.31
2023-01-22T11:50:13.692Z,101074.81
2023-01-22T11:52:48.047Z,101082.47
2023-01-22T11:55:25.002Z,101081.97
2023-01-22T11:58:20.864Z,101074.53
2023-01-22T12:01:02.455Z,101071.78
2023-01-22T12:03:48.954Z,101077.56
2023-01-22T12:07:03.283Z,101070.94
2023-01-22T12:09:37.742Z,101061.59
2023-01-22T12:12:42.530Z,101068.16
2023-01-22T12:15:46.390Z,101063.81
2023-01-22T12:18:40.780Z,101067.00
2023-01-22T12:21:09.701Z,101059.06
2023-01-22T12:23:46.518Z,101066.03
2023-01-22T12:26:25.384Z,101072.41
2023-01-22T12:29:10.626Z,101067.47
2023-01-22T12:31:47.757Z,101062.25
2023-01-22T12:34:23.455Z,101065.56
2023-01-22T12:36:50.904Z,101066.41
2023-01-22T12:39:42.085Z,101066.97
2023-01-22T12:42:27.389Z,101063.38
2023-01-22T12:45:00.048Z,101073.78
2023-01-22T12:47:40.193Z,101073.25
2023-01-22T12:50:24.080Z,101066.09
2023-01-22T12:53:01.672Z,101062.00
2023-01-22T12:55:30.421Z,101067.50
2023-01-22T12:57:57.178Z,101080.66
2023-01-22T13:00:31.759Z,101080.94
2023-01-22T13:02:58.517Z,101071.63
2023-01-22T13:05:31.135Z,101075.16
2023-01-22T13:08:24.081Z,101066.66
2023-01-22T13:11:02.101Z,101071.63
2023-01-22T13:13:44.908Z,101078.72
2023-01-22T13:16:34.171Z,101072.31
2023-01-22T13:19:12.590Z,101084.00
2023-01-22T13:21:39.059Z,101093.41
2023-01-22T13:24:18.849Z,101092.31
2023-01-22T13:27:00.719Z,101085.69
2023-01-22T13:29:36.764Z,101093.94
2023-01-22T13:32:20.080Z,101095.59
2023-01-22T13:34:47.134Z,101096.19
2023-01-22T13:37:26.829Z,101093.13
2023-01-22T13:39:53.448Z,101094.47
2023-01-22T13:42:20.038Z,101093.38
2023-01-22T13:44:49.116Z,101105.47
2023-01-22T13:47:35.813Z,101104.88
2023-01-22T13:50:02.695Z,101104.88
2023-01-22T13:52:29.356Z,101108.19
2023-01-22T13:55:01.485Z,101109.31
2023-01-22T13:57:28.279Z,101115.59
2023-01-22T14:00:00.038Z,101121.94
2023-01-22T14:02:35.003Z,101104.06
2023-01-22T14:05:02.066Z,101113.13
2023-01-22T14:07:34.461Z,101121.88
2023-01-22T14:10:15.052Z,101120.81
2023-01-22T14:12:41.464Z,101119.16
2023-01-22T14:15:16.927Z,101123.25
2023-01-22T14:17:43.459Z,101119.13
2023-01-22T14:20:10.999Z,101110.94
2023-01-22T14:22:37.380Z,101118.66
2023-01-22T14:25:04.684Z,101126.84
2023-01-22T14:27:43.839Z,101116.97
2023-01-22T14:30:14.384Z,101118.09
2023-01-22T14:32:42.268Z,101119.31
2023-01-22T14:35:16.363Z,101115.56
2023-01-22T14:37:43.575Z,101107.06
2023-01-22T14:40:12.698Z,101116.06
2023-01-22T14:42:39.573Z,101113.09
2023-01-22T14:45:06.998Z,101114.25
2023-01-22T14:47:34.647Z,101112.00
2023-01-22T14:50:02.025Z,101116.41
2023-01-22T14:52:28.627Z,101111.13
2023-01-22T14:54:56.105Z,101118.63
2023-01-22T14:57:23.873Z,101116.88
2023-01-22T14:59:50.611Z,101122.06
2023-01-22T15:02:17.411Z,101116.94
2023-01-22T15:04:45.223Z,101117.16
2023-01-22T15:07:12.314Z,101122.09
2023-01-22T15:09:39.070Z,101125.88
2023-01-22T15:12:06.149Z,101124.75
2023-01-22T15:14:32.666Z,101124.44
2023-01-22T15:16:59.200Z,101125.88
2023-01-22T15:19:25.569Z,101133.81
2023-01-22T15:21:51.916Z,101127.75
2023-01-22T15:24:18.468Z,101128.28
2023-01-22T15:26:45.043Z,101130.13
2023-01-22T15:29:13.943Z,101128.59
2023-01-22T15:31:40.929Z,101133.44
2023-01-22T15:34:08.117Z,101129.91
2023-01-22T15:36:36.284Z,101136.56
2023-01-22T15:39:03.922Z,101139.72
2023-01-22T15:41:32.702Z,101138.16
2023-01-22T15:44:03.142Z,101132.66
2023-01-22T15:46:32.082Z,101133.66
2023-01-22T15:48:59.955Z,101138.91
2023-01-22T15:51:27.759Z,101132.06
2023-01-22T15:53:56.415Z,101132.09
2023-01-22T15:56:25.854Z,101146.53
2023-01-22T15:58:53.027Z,101151.53
2023-01-22T16:01:20.342Z,101153.97
2023-01-22T16:03:47.279Z,101160.94
2023-01-22T16:06:18.598Z,101158.75
2023-01-22T16:08:45.985Z,101167.03
2023-01-22T16:11:13.757Z,101168.31
2023-01-22T16:13:40.923Z,101168.38
2023-01-22T16:16:14.928Z,101174.97
2023-01-22T16:18:41.499Z,101172.22
2023-01-22T16:21:08.899Z,101176.56
2023-01-22T16:23:41.501Z,101179.06
2023-01-22T16:26:09.957Z,101185.91
2023-01-22T16:28:37.190Z,101183.19
2023-01-22T16:31:05.812Z,101183.94
2023-01-22T16:33:33.843Z,101184.50
2023-01-22T16:36:15.523Z,101181.16
2023-01-22T16:38:42.486Z,101194.88
2023-01-22T16:41:24.880Z,101192.75
2023-01-22T16:43:58.457Z,101179.59
2023-01-22T16:46:29.555Z,101183.84
2023-01-22T16:49:10.437Z,101197.00
2023-01-22T16:51:39.538Z,101198.16
2023-01-22T16:54:07.063Z,101202.84
2023-01-22T16:56:33.995Z,101202.81
2023-01-22T16:59:00.835Z,101204.25
2023-01-22T17:01:29.579Z,101203.38
2023-01-22T17:03:56.179Z,101194.00
2023-01-22T17:06:30.779Z,101205.25
2023-01-22T17:08:57.560Z,101196.97
2023-01-22T17:11:24.512Z,101200.00
2023-01-22T17:13:50.931Z,101201.41
2023-01-22T17:16:17.438Z,101210.47
2023-01-22T17:18:44.005Z,101200.38
2023-01-22T17:21:12.779Z,101205.84
2023-01-22T17:23:39.238Z,101200.31
2023-01-22T17:26:10.748Z,101216.78
2023-01-22T17:28:37.613Z,101209.22
2023-01-22T17:31:08.868Z,101220.88
2023-01-22T17:33:35.734Z,101214.59
2023-01-22T17:36:03.846Z,101225.22
2023-01-22T17:38:33.001Z,101228.84
2023-01-22T17:41:11.364Z,101230.19
2023-01-22T17:43:38.734Z,101234.38
2023-01-22T17:46:08.976Z,101239.56
2023-01-22T17:48:36.297Z,101237.75
2023-01-22T17:51:07.121Z,101234.44
2023-01-22T17:53:36.460Z,101244.94
2023-01-22T17:56:11.215Z,101243.53
2023-01-22T17:58:37.822Z,101238.63
2023-01-22T18:01:39.376Z,101249.50
2023-01-22T18:04:08.710Z,101252.81
2023-01-22T18:06:36.745Z,101251.16
2023-01-22T18:09:05.084Z,101242.88
2023-01-22T18:11:33.048Z,101252.19
2023-01-22T18:14:22.479Z,101245.56
2023-01-22T18:16:49.816Z,101254.94
2023-01-22T18:19:18.617Z,101269.53
2023-01-22T18:21:45.247Z,101262.13
2023-01-22T18:24:13.513Z,101261.00
2023-01-22T18:26:40.202Z,101261.81
2023-01-22T18:29:07.352Z,101275.19
2023-01-22T18:31:34.167Z,101269.69
2023-01-22T18:34:02.806Z,101278.09
2023-01-22T18:36:31.679Z,101279.97
2023-01-22T18:39:03.699Z,101276.97
2023-01-22T18:41:30.790Z,101281.38
2023-01-22T18:43:59.723Z,101278.06
2023-01-22T18:46:31.164Z,101286.34
2023-01-22T18:49:03.280Z,101284.75
2023-01-22T18:51:31.248Z,101289.84
2023-01-22T18:53:57.712Z,101291.19
2023-01-22T18:56:25.681Z,101288.72
2023-01-22T18:58:56.500Z,101296.88
2023-01-22T19:01:26.062Z,101301.28
2023-01-22T19:03:55.735Z,101297.16
2023-01-22T19:06:24.177Z,101300.16
2023-01-22T19:09:03.476Z,101299.88
2023-01-22T19:11:32.074Z,101302.94
2023-01-22T19:14:00.153Z,101313.41
2023-01-22T19:16:28.291Z,101309.53
2023-01-22T19:18:56.788Z,101306.84
2023-01-22T19:21:24.537Z,101313.34
2023-01-22T19:23:54.558Z,101317.75
2023-01-22T19:26:24.089Z,101320.50
2023-01-22T19:29:04.614Z,101324.81
2023-01-22T19:31:37.733Z,101323.16
2023-01-22T19:34:04.797Z,101320.38
2023-01-22T19:36:34.880Z,101330.50
2023-01-22T19:39:03.217Z,101338.47
2023-01-22T19:41:29.893Z,101331.91
2023-01-22T19:43:59.187Z,101329.50
2023-01-22T19:46:26.236Z,101344.59
2023-01-22T19:48:53.621Z,101335.28
2023-01-22T19:51:22.218Z,101332.34
2023-01-22T19:53:49.407Z,101342.69
2023-01-22T19:56:17.200Z,101335.88
2023-01-22T19:58:43.957Z,101340.84
2023-01-22T20:01:13.193Z,101341.09
2023-01-22T20:03:39.787Z,101341.91
2023-01-22T20:06:07.741Z,101344.72
2023-01-22T20:08:36.557Z,101348.31
2023-01-22T20:11:04.439Z,101357.09
2023-01-22T20:13:32.420Z,101357.03
2023-01-22T20:15:59.981Z,101352.44
2023-01-22T20:18:28.004Z,101351.03
2023-01-22T20:20:58.527Z,101353.53
2023-01-22T20:23:26.425Z,101358.50
2023-01-22T20:25:53.282Z,101355.03
2023-01-22T20:28:20.557Z,101369.22
2023-01-22T20:30:58.590Z,101363.47
2023-01-22T20:33:25.706Z,101365.16
2023-01-22T20:35:59.101Z,101360.81
2023-01-22T20:38:25.615Z,101369.06
2023-01-22T20:40:53.547Z,101367.66
2023-01-22T20:43:20.679Z,101371.97
2023-01-22T20:46:00.912Z,101370.00
2023-01-22T20:48:29.086Z,101376.81
2023-01-22T20:50:55.852Z,101381.63
2023-01-22T20:53:22.861Z,101377.53
2023-01-22T20:56:04.506Z,101378.44
2023-01-22T20:58:31.935Z,101378.75
2023-01-22T21:01:07.502Z,101380.72
2023-01-22T21:03:34.092Z,101385.59
2023-01-22T21:06:05.728Z,101387.03
2023-01-22T21:08:32.238Z,101388.38
2023-01-22T21:11:00.707Z,101395.47
2023-01-22T21:13:27.568Z,101400.97
2023-01-22T21:15:54.059Z,101404.34
2023-01-22T21:18:22.239Z,101407.47
2023-01-22T21:20:48.907Z,101402.22
2023-01-22T21:23:16.775Z,101406.81
2023-01-22T21:25:43.174Z,101405.22
2023-01-22T21:28:10.697Z,101399.22
2023-01-22T21:30:37.412Z,101402.75
2023-01-22T21:33:03.801Z,101418.56
2023-01-22T21:35:30.205Z,101418.31
2023-01-22T21:37:56.642Z,101421.44
2023-01-22T21:40:23.047Z,101433.75
2023-01-22T21:43:08.096Z,101429.16
2023-01-22T21:45:53.543Z,101433.09
2023-01-22T21:48:20.054Z,101431.91
2023-01-22T21:50:47.602Z,101440.72
2023-01-22T21:53:14.070Z,101443.47
2023-01-22T21:55:49.490Z,101452.31
2023-01-22T21:58:15.963Z,101446.31
2023-01-22T22:00:44.575Z,101451.28
2023-01-22T22:03:10.929Z,101459.75
2023-01-22T22:05:37.483Z,101451.81
2023-01-22T22:08:03.949Z,101453.72
2023-01-22T22:10:32.555Z,101451.81
2023-01-22T22:12:58.984Z,101454.81
2023-01-22T22:15:25.400Z,101458.97
2023-01-22T22:17:51.817Z,101457.88
2023-01-22T22:20:18.532Z,101462.03
2023-01-22T22:22:45.933Z,101466.19
2023-01-22T22:25:12.246Z,101470.91
2023-01-22T22:27:38.629Z,101470.84
2023-01-22T22:30:05.616Z,101473.03
2023-01-22T22:32:32.335Z,101471.50
2023-01-22T22:34:58.697Z,101469.06
2023-01-22T22:37:25.121Z,101474.63
2023-01-22T22:39:52.826Z,101475.44
2023-01-22T22:42:19.220Z,101485.34
2023-01-22T22:44:45.688Z,101476.78
2023-01-22T22:47:12.199Z,101476.22
2023-01-22T22:49:38.581Z,101482.91
2023-01-22T22:52:04.958Z,101480.50
2023-01-22T22:54:31.314Z,101487.31
2023-01-22T22:56:58.150Z,101484.69
2023-01-22T22:59:25.351Z,101477.38
2023-01-22T23:01:51.772Z,101485.53
2023-01-22T23:04:19.622Z,101491.03
2023-01-22T23:06:46.449Z,101491.03
2023-01-22T23:09:17.382Z,101495.75
2023-01-22T23:11:43.842Z,101499.66
2023-01-22T23:14:10.545Z,101503.78
2023-01-22T23:16:40.213Z,101507.31
2023-01-22T23:19:21.317Z,101514.84
2023-01-22T23:21:56.748Z,101516.56
2023-01-22T23:24:23.177Z,101519.81
2023-01-22T23:26:50.056Z,101523.31
2023-01-22T23:29:21.249Z,101531.19
2023-01-22T23:31:48.698Z,101529.91
2023-01-22T23:34:18.054Z,101528.13
2023-01-22T23:36:46.046Z,101525.75
2023-01-22T23:39:14.292Z,101528.88
2023-01-22T23:41:41.156Z,101523.66
2023-01-22T23:44:07.802Z,101528.88
2023-01-22T23:46:36.309Z,101530.94
2023-01-22T23:49:04.228Z,101526.09
2023-01-22T23:51:31.087Z,101533.69
2023-01-22T23:54:08.288Z,101532.44
2023-01-22T23:56:35.211Z,101533.53
2023-01-22T23:59:01.615Z,101536.75
